Terminal Aerodrome Forecast
Issued by NWS Sioux Falls, SD

Home | Current Version | Previous Version | Graphics & Text | Print | Product List | Glossary On
Versions: 1 2 3 4 5 6 7 8 9 10 11 12
000
FTUS43 KFSD 161127
TAFFSD
TAF
KFSD 161127Z 1612/1712 VRB03KT P6SM SKC
     FM161500 20008KT P6SM SKC
     FM161800 20012G19KT P6SM SKC
     FM170000 19008KT P6SM SCT250
     FM170600 22004KT P6SM SKC=

USA.gov is the U.S. government's official web portal to all federal, state and local government web resources and services.